createdAt,value
2022-10-31T00:01:03.528Z,100757.56
2022-10-31T00:04:08.548Z,100757.66
2022-10-31T00:07:11.215Z,100741.38
2022-10-31T00:10:13.964Z,100760.38
2022-10-31T00:13:17.229Z,100770.19
2022-10-31T00:16:21.987Z,100762.91
2022-10-31T00:19:26.262Z,100762.97
2022-10-31T00:22:29.238Z,100765.69
2022-10-31T00:25:35.830Z,100770.22
2022-10-31T00:28:38.515Z,100773.97
2022-10-31T00:31:41.618Z,100772.22
2022-10-31T00:34:45.682Z,100766.69
2022-10-31T00:37:48.359Z,100769.34
2022-10-31T00:40:51.230Z,100763.91
2022-10-31T00:43:54.101Z,100773.00
2022-10-31T00:46:57.183Z,100769.34
2022-10-31T00:50:01.226Z,100765.69
2022-10-31T00:53:04.240Z,100764.75
2022-10-31T00:56:08.204Z,100762.03
2022-10-31T00:59:10.859Z,100763.91
2022-10-31T01:02:13.996Z,100761.22
2022-10-31T01:05:18.662Z,100762.16
2022-10-31T01:08:21.314Z,100767.59
2022-10-31T01:11:25.537Z,100767.59
2022-10-31T01:14:28.295Z,100774.94
2022-10-31T01:17:31.287Z,100770.44
2022-10-31T01:20:35.328Z,100769.63
2022-10-31T01:23:39.010Z,100767.78
2022-10-31T01:26:41.665Z,100768.63
2022-10-31T01:29:44.598Z,100766.97
2022-10-31T01:32:47.325Z,100769.81
2022-10-31T01:35:51.582Z,100766.25
2022-10-31T01:38:57.271Z,100771.66
2022-10-31T01:42:00.225Z,100778.09
2022-10-31T01:45:06.156Z,100780.88
2022-10-31T01:48:15.734Z,100768.91
2022-10-31T01:51:23.864Z,100781.97
2022-10-31T01:54:33.164Z,100783.03
2022-10-31T01:57:39.769Z,100784.03
2022-10-31T02:00:45.982Z,100786.84
2022-10-31T02:03:49.857Z,100785.97
2022-10-31T02:07:00.205Z,100786.97
2022-10-31T02:10:05.033Z,100791.38
2022-10-31T02:13:10.256Z,100787.78
2022-10-31T02:16:12.933Z,100784.19
2022-10-31T02:19:21.878Z,100777.88
2022-10-31T02:22:30.730Z,100784.31
2022-10-31T02:25:51.657Z,100790.63
2022-10-31T02:29:26.910Z,100781.59
2022-10-31T02:32:40.353Z,100784.56
2022-10-31T02:35:52.410Z,100783.94
2022-10-31T02:39:04.391Z,100775.03
2022-10-31T02:42:11.670Z,100777.97
2022-10-31T02:45:22.595Z,100778.91
2022-10-31T02:48:30.374Z,100780.78
2022-10-31T02:51:33.209Z,100786.31
2022-10-31T02:54:36.040Z,100778.28
2022-10-31T02:57:41.123Z,100781.97
2022-10-31T03:00:52.861Z,100786.56
2022-10-31T03:04:25.836Z,100782.94
2022-10-31T03:07:42.154Z,100771.31
2022-10-31T03:10:49.715Z,100774.22
2022-10-31T03:13:59.898Z,100777.94
2022-10-31T03:17:08.442Z,100781.53
2022-10-31T03:20:12.804Z,100781.53
2022-10-31T03:23:19.028Z,100778.00
2022-10-31T03:26:23.901Z,100778.09
2022-10-31T03:29:30.907Z,100781.06
2022-10-31T03:32:38.978Z,100772.19
2022-10-31T03:35:46.767Z,100779.41
2022-10-31T03:38:50.087Z,100777.56
2022-10-31T03:41:56.875Z,100776.75
2022-10-31T03:45:04.571Z,100782.09
2022-10-31T03:48:07.690Z,100781.16
2022-10-31T03:51:17.496Z,100782.16
2022-10-31T03:54:27.559Z,100778.56
2022-10-31T03:57:37.658Z,100785.91
2022-10-31T04:00:44.041Z,100771.53
2022-10-31T04:03:47.519Z,100773.44
2022-10-31T04:06:53.267Z,100776.34
2022-10-31T04:09:57.912Z,100777.25
2022-10-31T04:13:05.824Z,100772.75
2022-10-31T04:16:12.737Z,100776.41
2022-10-31T04:19:19.223Z,100778.22
2022-10-31T04:22:23.333Z,100773.75
2022-10-31T04:25:26.041Z,100769.47
2022-10-31T04:28:29.465Z,100768.59
2022-10-31T04:31:32.178Z,100768.47
2022-10-31T04:34:35.340Z,100767.53
2022-10-31T04:37:39.856Z,100773.91
2022-10-31T04:40:42.639Z,100766.66
2022-10-31T04:43:45.738Z,100762.91
2022-10-31T04:46:48.670Z,100769.47
2022-10-31T04:49:51.790Z,100761.34
2022-10-31T04:52:55.871Z,100757.63
2022-10-31T04:56:00.579Z,100754.94
2022-10-31T04:59:04.075Z,100757.63
2022-10-31T05:02:07.435Z,100755.72
2022-10-31T05:05:10.719Z,100759.47
2022-10-31T05:08:15.479Z,100734.53
2022-10-31T05:11:18.221Z,100755.13
2022-10-31T05:14:21.310Z,100749.56
2022-10-31T05:17:24.226Z,100750.97
2022-10-31T05:20:28.962Z,100751.03
2022-10-31T05:23:33.083Z,100749.97
2022-10-31T05:26:35.857Z,100746.56
2022-10-31T05:29:38.752Z,100745.63
2022-10-31T05:32:42.174Z,100742.44
2022-10-31T05:35:44.893Z,100749.88
2022-10-31T05:38:49.349Z,100738.25
2022-10-31T05:41:52.073Z,100739.38
2022-10-31T05:44:54.766Z,100734.91
2022-10-31T05:47:59.880Z,100737.06
2022-10-31T05:51:04.033Z,100736.91
2022-10-31T05:54:10.750Z,100738.84
2022-10-31T05:57:16.608Z,100748.19
2022-10-31T06:00:20.544Z,100744.66
2022-10-31T06:03:23.257Z,100750.31
2022-10-31T06:06:25.958Z,100750.22
2022-10-31T06:09:30.447Z,100751.31
2022-10-31T06:12:33.441Z,100750.31
2022-10-31T06:15:36.160Z,100744.66
2022-10-31T06:18:39.237Z,100744.91
2022-10-31T06:21:41.916Z,100751.31
2022-10-31T06:24:45.969Z,100748.19
2022-10-31T06:27:48.671Z,100744.59
2022-10-31T06:30:51.866Z,100745.63
2022-10-31T06:33:54.639Z,100756.38
2022-10-31T06:36:57.710Z,100757.50
2022-10-31T06:40:01.767Z,100762.97
2022-10-31T06:43:05.018Z,100769.22
2022-10-31T06:46:07.998Z,100766.81
2022-10-31T06:49:11.088Z,100770.78
2022-10-31T06:52:13.850Z,100766.75
2022-10-31T06:55:17.950Z,100770.22
2022-10-31T06:58:20.700Z,100775.75
2022-10-31T07:01:23.554Z,100772.72
2022-10-31T07:04:26.459Z,100771.44
2022-10-31T07:07:29.143Z,100778.81
2022-10-31T07:10:40.058Z,100759.91
2022-10-31T07:13:43.629Z,100772.63
2022-10-31T07:16:49.834Z,100778.59
2022-10-31T07:19:52.495Z,100780.41
2022-10-31T07:22:55.390Z,100778.84
2022-10-31T07:26:00.621Z,100778.78
2022-10-31T07:29:03.482Z,100781.53
2022-10-31T07:32:06.410Z,100783.41
2022-10-31T07:35:10.333Z,100787.84
2022-10-31T07:38:15.136Z,100785.72
2022-10-31T07:41:19.234Z,100778.22
2022-10-31T07:44:21.912Z,100779.75
2022-10-31T07:47:24.711Z,100779.94
2022-10-31T07:50:29.483Z,100784.19
2022-10-31T07:53:32.178Z,100785.13
2022-10-31T07:56:36.345Z,100780.59
2022-10-31T07:59:39.095Z,100778.56
2022-10-31T08:02:41.780Z,100783.25
2022-10-31T08:05:46.959Z,100784.00
2022-10-31T08:08:49.797Z,100782.09
2022-10-31T08:11:55.304Z,100776.56
2022-10-31T08:14:58.056Z,100777.47
2022-10-31T08:18:02.910Z,100767.25
2022-10-31T08:21:06.349Z,100769.97
2022-10-31T08:24:09.169Z,100764.25
2022-10-31T08:27:13.586Z,100759.97
2022-10-31T08:30:16.357Z,100762.69
2022-10-31T08:33:20.518Z,100765.16
2022-10-31T08:36:23.814Z,100763.25
2022-10-31T08:39:27.080Z,100759.72
2022-10-31T08:42:31.175Z,100755.25
2022-10-31T08:45:35.510Z,100752.41
2022-10-31T08:48:38.255Z,100749.31
2022-10-31T08:51:41.429Z,100748.84
2022-10-31T08:54:44.157Z,100743.31
2022-10-31T08:57:48.606Z,100745.09
2022-10-31T09:00:53.597Z,100738.88
2022-10-31T09:03:56.365Z,100742.44
2022-10-31T09:07:21.277Z,100713.19
2022-10-31T09:10:22.589Z,100739.06
2022-10-31T09:13:28.390Z,100731.63
2022-10-31T09:16:31.558Z,100733.28
2022-10-31T09:19:34.786Z,100729.97
2022-10-31T09:22:37.517Z,100731.03
2022-10-31T09:25:41.079Z,100729.31
2022-10-31T09:28:47.325Z,100717.28
2022-10-31T09:31:51.356Z,100711.09
2022-10-31T09:34:54.351Z,100704.06
2022-10-31T09:37:58.267Z,100686.75
2022-10-31T09:41:09.854Z,100694.69
2022-10-31T09:44:25.167Z,100699.78
2022-10-31T09:47:38.396Z,100694.09
2022-10-31T09:50:45.207Z,100694.91
2022-10-31T09:53:52.299Z,100700.56
2022-10-31T09:56:55.706Z,100701.09
2022-10-31T10:00:00.597Z,100690.44
2022-10-31T10:03:13.355Z,100689.16
2022-10-31T10:06:18.447Z,100689.88
2022-10-31T10:09:24.352Z,100686.66
2022-10-31T10:12:42.981Z,100692.63
2022-10-31T10:16:03.270Z,100684.84
2022-10-31T10:19:24.164Z,100676.25
2022-10-31T10:22:33.973Z,100670.13
2022-10-31T10:25:41.817Z,100670.63
2022-10-31T10:28:49.339Z,100671.00
2022-10-31T10:31:55.937Z,100668.78
2022-10-31T10:35:05.541Z,100671.72
2022-10-31T10:38:17.449Z,100666.28
2022-10-31T10:41:23.011Z,100655.69
2022-10-31T10:44:43.238Z,100650.53
2022-10-31T10:47:58.805Z,100654.22
2022-10-31T10:51:03.777Z,100646.97
2022-10-31T10:54:22.594Z,100648.31
2022-10-31T10:57:40.646Z,100638.00
2022-10-31T11:00:47.259Z,100633.13
2022-10-31T11:03:52.242Z,100631.66
2022-10-31T11:07:03.340Z,100624.47
2022-10-31T11:10:13.972Z,100617.81
2022-10-31T11:13:25.120Z,100611.88
2022-10-31T11:16:40.455Z,100612.34
2022-10-31T11:19:45.486Z,100616.34
2022-10-31T11:22:50.590Z,100608.09
2022-10-31T11:25:57.019Z,100602.16
2022-10-31T11:29:02.358Z,100599.25
2022-10-31T11:32:05.541Z,100586.44
2022-10-31T11:35:17.386Z,100587.91
2022-10-31T11:38:23.801Z,100583.59
2022-10-31T11:41:31.024Z,100579.38
2022-10-31T11:44:34.634Z,100576.50
2022-10-31T11:47:37.850Z,100564.25
2022-10-31T11:50:44.615Z,100550.63
2022-10-31T11:53:56.818Z,100555.28
2022-10-31T11:57:04.307Z,100545.41
2022-10-31T12:00:23.424Z,100540.59
2022-10-31T12:03:39.450Z,100549.13
2022-10-31T12:06:46.847Z,100531.88
2022-10-31T12:09:50.181Z,100525.16
2022-10-31T12:13:03.634Z,100528.34
2022-10-31T12:16:14.884Z,100517.84
2022-10-31T12:19:29.026Z,100521.13
2022-10-31T12:22:44.226Z,100505.47
2022-10-31T12:25:53.560Z,100500.50
2022-10-31T12:29:16.603Z,100500.50
2022-10-31T12:32:31.761Z,100492.97
2022-10-31T12:35:43.711Z,100486.78
2022-10-31T12:39:02.233Z,100488.63
2022-10-31T12:42:15.182Z,100492.16
2022-10-31T12:45:34.977Z,100487.75
2022-10-31T12:49:18.270Z,100482.78
2022-10-31T12:52:42.634Z,100481.25
2022-10-31T12:55:56.720Z,100464.41
2022-10-31T12:59:06.464Z,100469.75
2022-10-31T13:02:18.982Z,100451.63
2022-10-31T13:05:28.615Z,100455.31
2022-10-31T13:08:38.876Z,100439.25
2022-10-31T13:11:53.479Z,100436.91
2022-10-31T13:15:00.994Z,100437.50
2022-10-31T13:18:09.120Z,100435.63
2022-10-31T13:21:19.002Z,100438.94
2022-10-31T13:24:25.818Z,100439.34
2022-10-31T13:27:33.026Z,100434.69
2022-10-31T13:30:40.260Z,100430.97
2022-10-31T13:33:48.005Z,100425.50
2022-10-31T13:36:58.401Z,100416.94
2022-10-31T13:40:16.021Z,100428.81
2022-10-31T13:43:29.391Z,100433.88
2022-10-31T13:46:40.645Z,100416.34
2022-10-31T13:49:43.797Z,100424.34
2022-10-31T13:52:46.666Z,100423.94
2022-10-31T13:55:51.094Z,100412.53
2022-10-31T13:59:06.477Z,100409.34
2022-10-31T14:02:17.806Z,100399.78
2022-10-31T14:05:25.845Z,100387.19
2022-10-31T14:08:36.571Z,100395.06
2022-10-31T14:11:39.383Z,100398.09
2022-10-31T14:14:48.301Z,100390.72
2022-10-31T14:17:54.614Z,100392.97
2022-10-31T14:20:57.553Z,100383.72
2022-10-31T14:24:00.412Z,100392.00
2022-10-31T14:27:08.794Z,100391.66
2022-10-31T14:30:23.481Z,100391.56
2022-10-31T14:33:28.904Z,100384.84
2022-10-31T14:36:43.797Z,100372.97
2022-10-31T14:40:00.208Z,100357.41
2022-10-31T14:43:29.737Z,100356.13
2022-10-31T14:46:45.300Z,100348.66
2022-10-31T14:50:14.977Z,100350.03
2022-10-31T14:53:22.876Z,100363.22
2022-10-31T14:56:28.976Z,100364.19
2022-10-31T14:59:35.213Z,100362.88
2022-10-31T15:02:46.517Z,100365.59
2022-10-31T15:05:53.549Z,100384.69
2022-10-31T15:08:56.712Z,100379.72
2022-10-31T15:12:00.763Z,100365.25
2022-10-31T15:15:16.076Z,100377.84
2022-10-31T15:18:24.856Z,100376.25
2022-10-31T15:21:29.916Z,100377.59
2022-10-31T15:24:36.041Z,100380.00
2022-10-31T15:27:42.566Z,100376.06
2022-10-31T15:30:53.620Z,100368.56
2022-10-31T15:34:03.198Z,100380.59
2022-10-31T15:37:06.560Z,100381.63
2022-10-31T15:40:16.970Z,100377.44
2022-10-31T15:43:19.746Z,100386.94
2022-10-31T15:46:23.166Z,100374.81
2022-10-31T15:49:39.142Z,100375.75
2022-10-31T15:52:48.076Z,100369.19
2022-10-31T15:55:54.248Z,100368.81
2022-10-31T15:58:59.475Z,100362.84
2022-10-31T16:02:05.279Z,100354.41
2022-10-31T16:05:20.716Z,100355.03
2022-10-31T16:08:33.689Z,100341.94
2022-10-31T16:11:39.383Z,100325.44
2022-10-31T16:14:43.296Z,100345.25
2022-10-31T16:17:49.196Z,100344.00
2022-10-31T16:20:56.609Z,100345.63
2022-10-31T16:24:05.913Z,100355.63
2022-10-31T16:27:20.230Z,100365.69
2022-10-31T16:30:36.853Z,100372.88
2022-10-31T16:33:41.512Z,100378.16
2022-10-31T16:36:46.133Z,100381.84
2022-10-31T16:39:49.025Z,100382.63
2022-10-31T16:42:52.666Z,100369.91
2022-10-31T16:45:55.497Z,100354.53
2022-10-31T16:48:59.302Z,100358.41
2022-10-31T16:52:03.397Z,100327.16
2022-10-31T16:55:07.404Z,100315.25
2022-10-31T16:58:16.216Z,100323.47
2022-10-31T17:01:19.056Z,100327.00
2022-10-31T17:04:22.034Z,100324.16
2022-10-31T17:07:26.150Z,100305.84
2022-10-31T17:10:29.073Z,100294.97
2022-10-31T17:13:33.859Z,100289.47
2022-10-31T17:16:36.933Z,100276.75
2022-10-31T17:19:39.653Z,100254.47
2022-10-31T17:22:43.907Z,100251.91
2022-10-31T17:25:46.673Z,100277.53
2022-10-31T17:28:49.746Z,100314.00
2022-10-31T17:31:52.518Z,100279.63
2022-10-31T17:34:55.275Z,100272.25
2022-10-31T17:37:59.750Z,100273.06
2022-10-31T17:41:10.017Z,100279.09
2022-10-31T17:44:14.422Z,100284.81
2022-10-31T17:47:17.213Z,100284.09
2022-10-31T17:50:22.244Z,100287.84
2022-10-31T17:53:26.310Z,100288.19
2022-10-31T17:56:29.171Z,100292.06
2022-10-31T17:59:31.942Z,100299.22
2022-10-31T18:02:35.238Z,100302.94
2022-10-31T18:05:38.219Z,100297.31
2022-10-31T18:08:42.484Z,100279.06
2022-10-31T18:11:45.256Z,100277.16
2022-10-31T18:14:48.727Z,100271.53
2022-10-31T18:17:51.689Z,100272.50
2022-10-31T18:20:58.356Z,100258.13
2022-10-31T18:24:03.874Z,100257.41
2022-10-31T18:27:07.286Z,100277.50
2022-10-31T18:30:10.898Z,100278.38
2022-10-31T18:33:13.979Z,100251.53
2022-10-31T18:36:16.821Z,100266.47
2022-10-31T18:39:21.054Z,100258.38
2022-10-31T18:42:23.775Z,100259.44
2022-10-31T18:45:46.357Z,100252.25
2022-10-31T18:48:50.062Z,100255.16
2022-10-31T18:51:53.178Z,100241.19
2022-10-31T18:54:57.379Z,100234.34
2022-10-31T18:58:02.294Z,100230.50
2022-10-31T19:01:08.647Z,100227.06
2022-10-31T19:04:11.947Z,100230.66
2022-10-31T19:07:15.338Z,100215.31
2022-10-31T19:10:19.624Z,100199.88
2022-10-31T19:13:22.953Z,100187.00
2022-10-31T19:16:25.771Z,100193.41
2022-10-31T19:19:29.618Z,100189.28
2022-10-31T19:22:33.006Z,100185.03
2022-10-31T19:25:38.324Z,100197.00
2022-10-31T19:28:42.580Z,100188.41
2022-10-31T19:31:45.317Z,100200.31
2022-10-31T19:34:48.091Z,100200.84
2022-10-31T19:37:51.340Z,100215.75
2022-10-31T19:40:59.194Z,100216.44
2022-10-31T19:44:02.376Z,100236.25
2022-10-31T19:47:05.334Z,100222.19
2022-10-31T19:50:09.664Z,100229.59
2022-10-31T19:53:12.455Z,100240.69
2022-10-31T19:56:18.233Z,100261.63
2022-10-31T19:59:20.935Z,100259.91
2022-10-31T20:02:23.699Z,100254.69
2022-10-31T20:05:26.843Z,100250.59
2022-10-31T20:08:29.913Z,100247.19
2022-10-31T20:11:34.019Z,100254.00
2022-10-31T20:14:36.739Z,100267.09
2022-10-31T20:17:39.543Z,100268.28
2022-10-31T20:20:42.830Z,100248.59
2022-10-31T20:23:46.409Z,100245.94
2022-10-31T20:26:50.465Z,100256.00
2022-10-31T20:29:53.568Z,100249.69
2022-10-31T20:32:56.292Z,100249.94
2022-10-31T20:35:59.052Z,100250.00
2022-10-31T20:39:02.149Z,100262.72
2022-10-31T20:42:07.244Z,100249.13
2022-10-31T20:45:10.654Z,100234.28
2022-10-31T20:48:13.693Z,100233.63
2022-10-31T20:51:18.653Z,100244.09
2022-10-31T20:54:21.809Z,100238.09
2022-10-31T20:57:25.866Z,100242.06
2022-10-31T21:00:29.005Z,100253.25
2022-10-31T21:03:31.776Z,100254.66
2022-10-31T21:06:35.324Z,100272.22
2022-10-31T21:09:38.009Z,100253.66
2022-10-31T21:12:43.033Z,100251.72
2022-10-31T21:15:45.866Z,100260.34
2022-10-31T21:18:50.717Z,100278.06
2022-10-31T21:21:53.521Z,100287.97
2022-10-31T21:24:56.252Z,100267.78
2022-10-31T21:28:00.758Z,100274.19
2022-10-31T21:31:07.645Z,100263.13
2022-10-31T21:34:11.275Z,100260.22
2022-10-31T21:37:14.277Z,100261.97
2022-10-31T21:40:17.009Z,100254.78
2022-10-31T21:43:21.183Z,100260.16
2022-10-31T21:46:25.806Z,100257.34
2022-10-31T21:49:29.518Z,100254.63
2022-10-31T21:52:32.912Z,100251.91
2022-10-31T21:55:34.770Z,100250.94
2022-10-31T21:58:38.944Z,100238.31
2022-10-31T22:01:42.236Z,100245.66
2022-10-31T22:04:45.601Z,100233.81
2022-10-31T22:07:48.311Z,100237.34
2022-10-31T22:10:51.115Z,100225.50
2022-10-31T22:13:55.710Z,100238.16
2022-10-31T22:16:58.532Z,100238.91
2022-10-31T22:20:01.205Z,100233.47
2022-10-31T22:23:04.058Z,100238.91
2022-10-31T22:26:08.966Z,100229.88
2022-10-31T22:29:15.146Z,100219.09
2022-10-31T22:32:17.826Z,100216.38
2022-10-31T22:35:20.502Z,100208.22
2022-10-31T22:38:23.304Z,100208.22
2022-10-31T22:41:27.556Z,100198.38
2022-10-31T22:44:31.665Z,100200.31
2022-10-31T22:47:34.755Z,100206.03
2022-10-31T22:50:37.566Z,100211.47
2022-10-31T22:53:41.525Z,100215.94
2022-10-31T22:56:44.334Z,100215.94
2022-10-31T22:59:48.621Z,100215.84
2022-10-31T23:02:51.555Z,100208.75
2022-10-31T23:05:58.152Z,100220.44
2022-10-31T23:09:02.565Z,100210.31
2022-10-31T23:12:19.424Z,100211.19
2022-10-31T23:15:23.553Z,100211.38
2022-10-31T23:18:48.516Z,100202.34
2022-10-31T23:21:57.500Z,100208.91
2022-10-31T23:25:00.361Z,100199.78
2022-10-31T23:28:02.963Z,100208.91
2022-10-31T23:31:07.115Z,100204.50
2022-10-31T23:34:10.218Z,100207.22
2022-10-31T23:37:13.758Z,100209.09
2022-10-31T23:40:16.707Z,100199.06
2022-10-31T23:43:19.759Z,100205.59
2022-10-31T23:46:24.102Z,100203.84
2022-10-31T23:49:27.144Z,100202.78
2022-10-31T23:52:30.225Z,100196.19
2022-10-31T23:55:33.044Z,100198.03
2022-10-31T23:58:35.752Z,100198.03
